Time;durP1;ratioP1;P1;durP2;ratioP2;P2;SDS_P1;SDS_P2;PMS_P1;PMS_P2;Temp;Humidity;BMP_temperature;BMP_pressure;BME280_temperature;BME280_humidity;BME280_pressure;Samples;Min_cycle;Max_cycle;Signal;HPM_P1;HPM_P2
2022/10/18 00:02:45;;;;;;;11.80;6.60;;;;;;;13.46;62.65;101063.25;30737407;28;96699;-69
2022/10/18 00:17:45;;;;;;;9.93;7.13;;;;;;;13.70;62.96;101048.22;30753364;28;97521;-69
2022/10/18 00:32:46;;;;;;;11.27;6.50;;;;;;;13.70;62.74;101042.84;30751913;28;96694;-69
2022/10/18 00:47:52;;;;;;;9.05;5.95;;;;;;;13.56;62.78;101047.06;30750637;28;96788;-69
2022/10/18 01:02:53;;;;;;;10.27;6.33;;;;;;;13.40;63.14;101031.84;30749778;28;97000;-69
2022/10/18 01:18:19;;;;;;;8.30;5.88;;;;;;;13.23;63.18;101027.47;30747060;28;96720;-67
2022/10/18 01:33:42;;;;;;;8.60;5.77;;;;;;;13.30;63.52;101023.94;30746112;28;97471;-70
2022/10/18 01:48:42;;;;;;;9.90;5.90;;;;;;;13.23;63.52;101014.06;30744598;28;97429;-69
2022/10/18 02:03:47;;;;;;;10.23;5.85;;;;;;;13.08;63.76;101006.72;30743669;28;96833;-69
2022/10/18 02:18:53;;;;;;;9.80;5.57;;;;;;;12.93;63.87;101008.38;30742116;28;97131;-70
2022/10/18 02:34:27;;;;;;;9.03;5.93;;;;;;;12.78;64.08;101014.38;30739755;28;96762;-69
2022/10/18 02:49:27;;;;;;;9.60;6.30;;;;;;;12.56;65.07;101015.00;30729725;28;96824;-69
2022/10/18 03:04:28;;;;;;;13.18;6.43;;;;;;;12.39;65.08;101030.16;30736453;28;103671;-69
2022/10/18 03:19:28;;;;;;;20.65;6.93;;;;;;;12.35;65.46;101018.94;30735301;28;96739;-69
2022/10/18 03:34:29;;;;;;;15.23;6.63;;;;;;;12.22;66.28;101047.94;30732737;28;96739;-70
2022/10/18 03:49:29;;;;;;;17.38;8.13;;;;;;;12.08;66.39;101047.53;30729294;28;114461;-71
2022/10/18 04:04:29;;;;;;;19.73;7.95;;;;;;;11.90;66.35;101060.91;30746088;28;98013;-70
2022/10/18 04:19:30;;;;;;;17.73;8.43;;;;;;;11.65;67.60;101067.94;30729158;28;105571;-69
2022/10/18 04:34:30;;;;;;;27.65;9.80;;;;;;;11.48;67.64;101067.81;30726861;28;101648;-70
2022/10/18 04:49:30;;;;;;;20.80;8.68;;;;;;;11.30;68.14;101064.31;30728695;28;96877;-70
2022/10/18 05:04:31;;;;;;;37.70;17.60;;;;;;;11.16;68.57;101063.03;30744947;28;96734;-70
2022/10/18 05:19:31;;;;;;;14.20;8.60;;;;;;;11.13;69.18;101058.84;30745045;28;96783;-70
2022/10/18 05:34:31;;;;;;;25.00;10.38;;;;;;;11.07;69.60;101058.63;30732607;28;117068;-69
2022/10/18 05:49:32;;;;;;;12.65;9.57;;;;;;;11.26;69.97;101071.81;30737829;28;96883;-68
2022/10/18 06:04:33;;;;;;;24.88;9.35;;;;;;;11.55;69.98;101061.84;30740294;28;96871;-67
2022/10/18 06:19:33;;;;;;;18.50;8.67;;;;;;;12.24;69.44;101067.31;30736150;28;96743;-68
2022/10/18 06:34:34;;;;;;;17.20;8.63;;;;;;;13.17;68.41;101080.63;30735637;28;96734;-66
2022/10/18 06:49:34;;;;;;;16.52;8.27;;;;;;;14.22;67.63;101079.06;30732771;28;113982;-67
2022/10/18 07:04:34;;;;;;;18.50;8.63;;;;;;;15.16;64.90;101089.84;30732957;28;102487;-67
2022/10/18 07:19:35;;;;;;;18.92;9.52;;;;;;;15.96;63.50;101090.34;30731904;28;109825;-67
2022/10/18 07:34:35;;;;;;;14.38;8.57;;;;;;;16.85;62.69;101089.47;30728804;28;103864;-65
2022/10/18 07:49:35;;;;;;;10.35;7.47;;;;;;;18.55;59.27;101097.69;30728637;28;96824;-67
2022/10/18 08:04:36;;;;;;;10.75;7.63;;;;;;;19.83;56.07;101082.56;30727719;28;116115;-67
2022/10/18 08:19:36;;;;;;;11.05;7.47;;;;;;;21.76;51.89;101069.09;30728058;28;96642;-69
2022/10/18 08:34:36;;;;;;;7.87;5.70;;;;;;;29.81;37.97;101047.00;30747020;28;97440;-67
2022/10/18 08:49:43;;;;;;;10.05;5.90;;;;;;;32.37;28.72;101039.78;30745127;28;104198;-67
2022/10/18 09:04:49;;;;;;;15.43;5.73;;;;;;;35.83;25.06;101022.41;30744391;28;97183;-64
2022/10/18 09:20:00;;;;;;;11.13;6.10;;;;;;;40.50;19.80;101020.63;30743145;28;97315;-79
2022/10/18 09:35:48;;;;;;;8.10;5.73;;;;;;;39.50;19.14;100976.47;30743235;28;97711;-61
2022/10/18 09:51:00;;;;;;;8.90;5.27;;;;;;;40.66;19.13;100955.66;30590041;28;98544;-61
2022/10/18 10:06:10;;;;;;;7.50;5.73;;;;;;;43.67;16.49;100945.53;30739828;28;96788;-62
2022/10/18 10:21:15;;;;;;;7.63;5.73;;;;;;;43.10;16.30;100907.03;30738696;28;97092;-63
2022/10/18 10:36:19;;;;;;;9.90;8.17;;;;;;;34.37;23.39;100892.78;30736054;28;97046;-64
2022/10/18 10:51:31;;;;;;;15.07;9.77;;;;;;;33.07;25.66;100897.44;30733219;28;96755;-63
2022/10/18 11:06:45;;;;;;;12.57;8.23;;;;;;;30.26;28.47;100874.00;30733243;28;97053;-63
2022/10/18 11:21:45;;;;;;;16.10;9.70;;;;;;;27.50;32.65;100867.50;30730164;28;97098;-62
2022/10/18 11:37:13;;;;;;;11.52;7.43;;;;;;;25.53;36.09;100841.53;30728900;28;97981;-60
2022/10/18 11:52:19;;;;;;;11.57;6.30;;;;;;;31.90;30.54;100801.78;30728610;28;97435;-64
2022/10/18 12:07:21;;;;;;;10.17;6.07;;;;;;;30.38;28.51;100783.75;30602843;28;97622;-65
2022/10/18 12:22:27;;;;;;;12.20;6.07;;;;;;;28.40;31.38;100757.84;30597411;28;97410;-73
2022/10/18 12:38:08;;;;;;;13.53;7.53;;;;;;;25.23;35.62;100730.97;30594773;28;97247;-70
2022/10/18 12:53:08;;;;;;;9.17;6.67;;;;;;;23.20;39.82;100720.97;30593392;28;96878;-65
2022/10/18 13:08:26;;;;;;;11.98;6.70;;;;;;;23.01;41.23;100693.09;30593951;28;97592;-69
2022/10/18 13:23:50;;;;;;;11.40;6.23;;;;;;;27.62;35.05;100689.38;30698704;28;96797;-71
2022/10/18 13:38:54;;;;;;;8.83;6.80;;;;;;;29.76;32.77;100684.56;30721728;28;97435;-69
2022/10/18 13:54:00;;;;;;;9.57;6.73;;;;;;;26.43;34.32;100687.31;30740171;28;97546;-70
2022/10/18 14:09:07;;;;;;;10.73;7.03;;;;;;;23.16;39.72;100734.19;30739240;28;97391;-68
2022/10/18 14:24:27;;;;;;;16.93;8.50;;;;;;;21.56;43.80;100757.53;30736540;28;96719;-70
2022/10/18 14:39:29;;;;;;;10.00;6.27;;;;;;;20.23;49.32;100798.44;30729516;28;97808;-69
2022/10/18 14:54:36;;;;;;;8.47;4.67;;;;;;;18.60;55.44;100824.53;30733940;28;97074;-72
2022/10/18 15:09:36;;;;;;;5.30;3.93;;;;;;;17.39;59.25;100844.97;30733857;28;96927;-67
2022/10/18 15:24:40;;;;;;;4.18;2.25;;;;;;;16.56;61.57;100850.97;30732395;28;97573;-65
2022/10/18 15:39:40;;;;;;;4.00;2.03;;;;;;;16.02;63.64;100871.09;30730985;28;97133;-65
2022/10/18 15:54:41;;;;;;;3.17;1.48;;;;;;;15.69;65.23;100901.06;30694709;28;97909;-67
2022/10/18 16:09:41;;;;;;;3.28;1.40;;;;;;;15.35;66.44;100886.34;30626297;28;97393;-67
2022/10/18 16:24:41;;;;;;;4.25;2.22;;;;;;;15.24;67.29;100922.53;30725622;28;111789;-70
2022/10/18 16:39:42;;;;;;;4.85;2.45;;;;;;;15.10;68.54;100951.00;30722249;28;107956;-67
2022/10/18 16:54:42;;;;;;;4.82;2.92;;;;;;;15.06;69.16;100957.75;30695033;28;113788;-67
2022/10/18 17:09:43;;;;;;;6.47;3.33;;;;;;;14.96;70.27;100973.28;30734913;28;97166;-67
2022/10/18 17:24:43;;;;;;;6.70;3.30;;;;;;;14.87;71.23;100992.13;30729489;28;111446;-66
2022/10/18 17:39:45;;;;;;;5.57;2.85;;;;;;;14.74;71.73;101010.63;30690399;28;97179;-66
2022/10/18 17:54:45;;;;;;;6.67;3.67;;;;;;;14.65;72.64;101025.97;30612073;28;97271;-64
2022/10/18 18:09:45;;;;;;;8.25;4.95;;;;;;;14.45;73.40;101024.66;30609408;28;96792;-66
2022/10/18 18:24:46;;;;;;;7.38;4.32;;;;;;;14.37;73.95;101022.88;30606540;28;105338;-66
2022/10/18 18:39:46;;;;;;;8.27;6.07;;;;;;;14.26;74.57;101020.59;30606979;28;112974;-66
2022/10/18 18:54:46;;;;;;;9.70;5.82;;;;;;;14.22;75.31;101036.19;30607329;28;108569;-66
2022/10/18 19:09:49;;;;;;;9.13;5.75;;;;;;;14.30;75.69;101025.41;30605484;28;113605;-65
2022/10/18 19:24:49;;;;;;;10.27;7.63;;;;;;;14.35;75.76;101020.38;30649982;28;97346;-66
2022/10/18 19:39:49;;;;;;;13.07;8.30;;;;;;;14.36;76.05;101032.75;30712697;28;122706;-66
2022/10/18 19:54:50;;;;;;;9.60;6.97;;;;;;;14.15;76.53;101022.63;30718422;28;104411;-69
2022/10/18 20:09:50;;;;;;;9.60;7.10;;;;;;;14.07;76.86;101017.31;30720891;28;97841;-68
2022/10/18 20:24:51;;;;;;;15.00;9.73;;;;;;;14.12;77.46;101028.34;30733226;28;97182;-68
2022/10/18 20:39:51;;;;;;;12.10;8.02;;;;;;;14.08;77.71;101034.22;30742695;28;97467;-68
2022/10/18 20:54:51;;;;;;;11.13;7.82;;;;;;;13.99;78.03;101034.22;30747464;28;97322;-68
2022/10/18 21:09:51;;;;;;;12.73;9.52;;;;;;;13.95;78.88;101026.72;30747561;28;111757;-70
2022/10/18 21:24:52;;;;;;;15.07;10.55;;;;;;;13.94;79.25;101025.91;30747744;28;96750;-68
2022/10/18 21:39:52;;;;;;;21.17;11.98;;;;;;;13.98;79.22;101021.88;30743786;28;119715;-68
2022/10/18 21:54:52;;;;;;;17.23;10.90;;;;;;;14.01;79.49;101017.97;30744503;28;108285;-69
2022/10/18 22:09:53;;;;;;;13.13;9.38;;;;;;;14.03;79.57;101010.63;30743662;28;97472;-68
2022/10/18 22:24:53;;;;;;;11.40;8.07;;;;;;;13.96;79.78;101009.66;30742147;28;97198;-69
2022/10/18 22:39:53;;;;;;;15.55;8.23;;;;;;;13.81;79.97;101006.84;30740329;28;113264;-68
2022/10/18 22:54:54;;;;;;;13.77;8.50;;;;;;;13.74;79.89;101000.47;30738435;28;118205;-68
2022/10/18 23:09:54;;;;;;;9.98;7.15;;;;;;;13.52;80.30;101003.72;30737304;28;111910;-69
2022/10/18 23:24:54;;;;;;;12.05;6.45;;;;;;;13.40;80.27;100994.38;30735996;28;104234;-68
2022/10/18 23:39:54;;;;;;;12.45;6.65;;;;;;;12.86;79.87;100978.78;30734520;28;105777;-68
2022/10/18 23:54:55;;;;;;;14.10;7.75;;;;;;;12.26;79.72;100982.50;30733224;28;96737;-68
